createdAt,value
2023-06-30T00:00:28.562Z,99.90
2023-06-30T00:02:57.566Z,99.90
2023-06-30T00:05:26.697Z,99.90
2023-06-30T00:07:59.771Z,99.90
2023-06-30T00:10:29.522Z,99.90
2023-06-30T00:12:57.669Z,99.90
2023-06-30T00:15:25.830Z,99.90
2023-06-30T00:17:54.874Z,99.90
2023-06-30T00:20:24.806Z,99.90
2023-06-30T00:22:54.334Z,99.90
2023-06-30T00:25:22.669Z,99.90
2023-06-30T00:27:52.299Z,99.90
2023-06-30T00:30:20.568Z,99.90
2023-06-30T00:32:48.939Z,99.90
2023-06-30T00:35:17.263Z,99.90
2023-06-30T00:37:45.525Z,99.90
2023-06-30T00:40:15.976Z,99.90
2023-06-30T00:42:44.322Z,99.90
2023-06-30T00:45:14.196Z,99.90
2023-06-30T00:47:42.418Z,99.90
2023-06-30T00:50:11.968Z,99.90
2023-06-30T00:52:40.295Z,99.90
2023-06-30T00:55:10.722Z,99.90
2023-06-30T00:57:39.404Z,99.90
2023-06-30T01:00:12.382Z,99.90
2023-06-30T01:02:50.344Z,99.90
2023-06-30T01:05:26.473Z,99.90
2023-06-30T01:08:02.119Z,99.90
2023-06-30T01:10:32.310Z,99.90
2023-06-30T01:13:02.680Z,99.90
2023-06-30T01:15:31.552Z,99.90
2023-06-30T01:18:03.030Z,99.90
2023-06-30T01:20:34.388Z,99.90
2023-06-30T01:23:09.245Z,99.90
2023-06-30T01:25:37.393Z,99.90
2023-06-30T01:28:06.580Z,99.90
2023-06-30T01:30:35.374Z,99.90
2023-06-30T01:33:05.240Z,99.90
2023-06-30T01:35:33.616Z,99.90
2023-06-30T01:38:03.403Z,99.90
2023-06-30T01:40:32.157Z,99.90
2023-06-30T01:43:00.457Z,99.90
2023-06-30T01:45:30.241Z,99.90
2023-06-30T01:47:59.921Z,99.90
2023-06-30T01:50:31.048Z,99.90
2023-06-30T01:52:59.313Z,99.90
2023-06-30T01:55:28.208Z,99.90
2023-06-30T01:57:56.413Z,99.90
2023-06-30T02:00:24.721Z,99.90
2023-06-30T02:02:53.237Z,99.90
2023-06-30T02:05:21.593Z,99.90
2023-06-30T02:07:51.405Z,99.90
2023-06-30T02:10:19.873Z,99.90
2023-06-30T02:12:48.128Z,99.90
2023-06-30T02:15:16.280Z,99.90
2023-06-30T02:17:44.641Z,99.90
2023-06-30T02:20:14.302Z,99.90
2023-06-30T02:22:43.120Z,99.90
2023-06-30T02:25:12.673Z,99.90
2023-06-30T02:27:40.994Z,99.90
2023-06-30T02:30:10.176Z,99.90
2023-06-30T02:32:39.744Z,99.90
2023-06-30T02:35:09.349Z,99.90
2023-06-30T02:37:37.675Z,99.90
2023-06-30T02:40:07.135Z,99.90
2023-06-30T02:42:36.832Z,99.90
2023-06-30T02:45:06.229Z,99.90
2023-06-30T02:47:34.441Z,99.90
2023-06-30T02:50:02.780Z,99.90
2023-06-30T02:52:30.942Z,99.90
2023-06-30T02:54:59.098Z,99.90
2023-06-30T02:57:27.675Z,99.90
2023-06-30T02:59:57.253Z,99.90
2023-06-30T03:07:55.992Z,99.90
2023-06-30T03:10:36.593Z,99.90
2023-06-30T03:13:04.710Z,99.90
2023-06-30T03:15:32.787Z,99.90
2023-06-30T03:18:00.925Z,99.90
2023-06-30T03:20:29.049Z,99.90
2023-06-30T03:22:57.136Z,99.90
2023-06-30T03:25:25.587Z,99.90
2023-06-30T03:27:55.034Z,99.90
2023-06-30T03:30:23.136Z,99.90
2023-06-30T03:32:51.310Z,99.90
2023-06-30T03:35:19.651Z,99.90
2023-06-30T03:37:47.718Z,99.90
2023-06-30T03:40:15.835Z,99.90
2023-06-30T03:42:43.963Z,99.90
2023-06-30T03:45:13.688Z,99.90
2023-06-30T03:47:41.896Z,99.90
2023-06-30T03:50:10.854Z,99.90
2023-06-30T03:52:38.981Z,99.90
2023-06-30T03:55:07.845Z,99.90
2023-06-30T03:57:35.948Z,99.90
2023-06-30T04:00:05.417Z,99.90
2023-06-30T04:02:34.928Z,99.90
2023-06-30T04:05:03.289Z,99.90
2023-06-30T04:07:31.549Z,99.90
2023-06-30T04:10:00.139Z,99.90
2023-06-30T04:12:28.341Z,99.90
2023-06-30T04:14:56.466Z,99.90
2023-06-30T04:17:24.608Z,99.90
2023-06-30T04:19:54.115Z,99.90
2023-06-30T04:22:23.380Z,99.90
2023-06-30T04:24:51.484Z,99.90
2023-06-30T04:27:19.847Z,99.90
2023-06-30T04:29:47.979Z,99.90
2023-06-30T04:32:16.121Z,99.90
2023-06-30T04:34:45.635Z,99.90
2023-06-30T04:37:15.953Z,99.90
2023-06-30T04:39:44.584Z,99.90
2023-06-30T04:42:12.678Z,99.90
2023-06-30T04:44:40.886Z,99.90
2023-06-30T04:47:09.674Z,99.90
2023-06-30T04:49:37.777Z,99.90
2023-06-30T04:52:06.802Z,99.90
2023-06-30T04:54:36.222Z,99.90
2023-06-30T04:57:04.488Z,99.90
2023-06-30T04:59:32.610Z,99.90
2023-06-30T05:02:01.643Z,99.90
2023-06-30T05:04:29.827Z,99.90
2023-06-30T05:06:57.921Z,99.90
2023-06-30T05:09:26.484Z,99.90
2023-06-30T05:11:55.998Z,99.90
2023-06-30T05:29:49.296Z,99.90
2023-06-30T05:32:17.419Z,99.90
2023-06-30T05:34:47.689Z,99.90
2023-06-30T05:37:16.088Z,99.90
2023-06-30T05:39:44.400Z,99.90
2023-06-30T05:42:12.531Z,99.90
2023-06-30T05:44:40.673Z,99.90
2023-06-30T05:47:10.377Z,99.90
2023-06-30T05:49:38.487Z,99.90
2023-06-30T05:52:08.386Z,99.90
2023-06-30T05:54:36.463Z,99.90
2023-06-30T05:57:04.897Z,99.90
2023-06-30T05:59:32.972Z,99.90
2023-06-30T06:02:01.079Z,99.90
2023-06-30T06:04:30.760Z,99.90
2023-06-30T06:07:03.590Z,99.90
2023-06-30T06:09:31.847Z,99.90
2023-06-30T06:12:00.008Z,99.90
2023-06-30T06:14:28.103Z,99.90
2023-06-30T06:16:56.336Z,99.90
2023-06-30T06:19:24.468Z,99.90
2023-06-30T06:21:53.987Z,99.90
2023-06-30T06:24:22.153Z,99.90
2023-06-30T06:26:50.188Z,99.90
2023-06-30T06:29:22.839Z,99.90
2023-06-30T06:35:31.842Z,99.90
2023-06-30T06:38:01.368Z,99.90
2023-06-30T06:40:30.957Z,99.90
2023-06-30T06:42:59.210Z,99.90
2023-06-30T06:45:27.704Z,99.90
2023-06-30T06:48:18.916Z,99.90
2023-06-30T06:50:47.161Z,99.40
2023-06-30T06:53:21.217Z,99.90
2023-06-30T06:55:50.601Z,99.90
2023-06-30T06:58:18.980Z,99.90
2023-06-30T07:00:48.230Z,97.80
2023-06-30T07:03:16.900Z,96.70
2023-06-30T07:05:46.537Z,96.30
2023-06-30T07:08:15.749Z,96.20
2023-06-30T07:10:46.027Z,95.90
2023-06-30T07:13:14.715Z,96.10
2023-06-30T07:15:43.087Z,95.50
2023-06-30T07:18:11.775Z,93.90
2023-06-30T07:20:39.995Z,92.90
2023-06-30T07:23:08.087Z,92.70
2023-06-30T07:25:36.182Z,92.30
2023-06-30T07:28:05.993Z,91.90
2023-06-30T07:30:34.156Z,91.90
2023-06-30T07:33:02.272Z,90.90
2023-06-30T07:35:30.589Z,89.50
2023-06-30T07:37:58.693Z,88.00
2023-06-30T07:40:28.231Z,89.30
2023-06-30T07:42:58.466Z,87.00
2023-06-30T07:45:27.930Z,85.10
2023-06-30T07:47:56.184Z,85.60
2023-06-30T07:50:25.449Z,86.30
2023-06-30T07:52:53.601Z,85.40
2023-06-30T07:55:22.213Z,85.90
2023-06-30T07:57:50.538Z,84.40
2023-06-30T08:00:19.949Z,83.90
2023-06-30T08:02:49.881Z,82.50
2023-06-30T08:05:18.347Z,81.90
2023-06-30T08:07:50.252Z,83.10
2023-06-30T08:10:19.922Z,82.50
2023-06-30T08:12:48.131Z,81.00
2023-06-30T08:15:16.248Z,78.90
2023-06-30T08:17:52.916Z,79.40
2023-06-30T08:20:27.933Z,80.50
2023-06-30T08:22:56.251Z,79.80
2023-06-30T08:25:25.495Z,79.50
2023-06-30T08:27:54.153Z,78.20
2023-06-30T08:30:25.051Z,79.30
2023-06-30T08:32:55.393Z,80.00
2023-06-30T08:35:24.405Z,78.40
2023-06-30T08:37:54.489Z,78.60
2023-06-30T08:40:27.359Z,78.90
2023-06-30T08:42:57.430Z,79.80
2023-06-30T08:45:26.907Z,77.60
2023-06-30T08:47:55.182Z,77.90
2023-06-30T08:50:23.862Z,76.50
2023-06-30T08:52:54.601Z,77.30
2023-06-30T08:55:22.713Z,78.20
2023-06-30T08:57:51.534Z,78.60
2023-06-30T09:00:20.967Z,78.40
2023-06-30T09:02:50.490Z,78.40
2023-06-30T09:05:19.158Z,79.20
2023-06-30T09:07:52.425Z,80.40
2023-06-30T09:10:24.151Z,79.20
2023-06-30T09:12:55.584Z,78.70
2023-06-30T09:15:24.586Z,76.80
2023-06-30T09:17:53.958Z,76.10
2023-06-30T09:20:23.664Z,77.00
2023-06-30T09:22:56.572Z,76.70
2023-06-30T09:25:42.544Z,75.80
2023-06-30T09:28:13.413Z,77.30
2023-06-30T09:30:44.706Z,77.10
2023-06-30T09:33:15.823Z,76.30
2023-06-30T09:35:46.334Z,77.80
2023-06-30T09:38:16.223Z,78.50
2023-06-30T09:40:46.757Z,77.50
2023-06-30T09:43:19.367Z,75.80
2023-06-30T09:45:50.191Z,76.30
2023-06-30T09:48:18.765Z,76.00
2023-06-30T09:50:46.883Z,76.20
2023-06-30T09:53:21.009Z,77.50
2023-06-30T09:55:52.006Z,77.80
2023-06-30T09:58:21.625Z,77.90
2023-06-30T10:00:52.840Z,77.90
2023-06-30T10:03:21.134Z,77.10
2023-06-30T10:05:50.608Z,76.70
2023-06-30T10:08:19.264Z,77.50
2023-06-30T10:10:47.706Z,78.10
2023-06-30T10:13:20.053Z,78.90
2023-06-30T10:15:48.694Z,78.20
2023-06-30T10:18:19.090Z,78.90
2023-06-30T10:20:49.976Z,80.20
2023-06-30T10:23:20.357Z,82.20
2023-06-30T10:25:51.011Z,81.30
2023-06-30T10:28:21.439Z,81.80
2023-06-30T10:30:52.396Z,81.50
2023-06-30T10:33:20.709Z,80.70
2023-06-30T10:35:51.437Z,80.90
2023-06-30T10:38:20.588Z,81.00
2023-06-30T10:40:48.974Z,80.60
2023-06-30T10:43:17.158Z,83.30
2023-06-30T10:46:11.286Z,84.10
2023-06-30T10:48:42.001Z,83.50
2023-06-30T10:51:13.693Z,83.60
2023-06-30T10:53:44.834Z,81.80
2023-06-30T10:56:12.977Z,81.70
2023-06-30T10:58:44.240Z,81.60
2023-06-30T11:01:16.779Z,81.50
2023-06-30T11:04:13.020Z,82.10
2023-06-30T11:06:41.801Z,83.50
2023-06-30T11:09:12.563Z,83.70
2023-06-30T11:11:50.830Z,83.50
2023-06-30T11:14:34.001Z,84.80
2023-06-30T11:17:08.006Z,85.20
2023-06-30T11:19:38.519Z,84.00
2023-06-30T11:22:26.573Z,84.80
2023-06-30T11:24:55.728Z,83.20
2023-06-30T11:27:24.026Z,83.70
2023-06-30T11:29:52.556Z,83.00
2023-06-30T11:32:28.563Z,82.50
2023-06-30T11:34:58.541Z,82.80
2023-06-30T11:37:27.654Z,83.70
2023-06-30T11:39:57.365Z,83.90
2023-06-30T11:42:25.659Z,84.50
2023-06-30T11:44:53.808Z,83.80
2023-06-30T11:47:23.316Z,83.20
2023-06-30T11:49:52.086Z,83.90
2023-06-30T11:52:21.133Z,85.10
2023-06-30T11:54:49.398Z,85.70
2023-06-30T11:57:17.559Z,85.30
2023-06-30T11:59:45.716Z,85.00
2023-06-30T12:02:14.808Z,83.90
2023-06-30T12:04:49.756Z,84.00
2023-06-30T12:07:30.780Z,85.10
2023-06-30T12:10:02.633Z,85.80
2023-06-30T12:12:31.365Z,87.90
2023-06-30T12:14:59.642Z,86.90
2023-06-30T12:17:30.241Z,86.70
2023-06-30T12:19:59.796Z,85.70
2023-06-30T12:22:29.247Z,84.80
2023-06-30T12:24:59.023Z,85.70
2023-06-30T12:27:28.596Z,85.70
2023-06-30T12:30:00.465Z,85.50
2023-06-30T12:32:32.553Z,86.10
2023-06-30T12:35:07.270Z,86.40
2023-06-30T12:37:38.327Z,85.40
2023-06-30T12:40:09.592Z,86.90
2023-06-30T12:42:41.172Z,85.80
2023-06-30T12:45:13.345Z,86.70
2023-06-30T12:52:18.307Z,86.40
2023-06-30T12:54:48.159Z,86.00
2023-06-30T12:57:16.448Z,86.40
2023-06-30T12:59:45.191Z,85.10
2023-06-30T13:02:13.738Z,84.20
2023-06-30T13:04:41.980Z,84.60
2023-06-30T13:10:02.296Z,84.50
2023-06-30T13:12:30.899Z,84.60
2023-06-30T13:14:59.647Z,86.30
2023-06-30T13:17:28.038Z,86.60
2023-06-30T13:19:56.282Z,86.20
2023-06-30T13:22:24.729Z,86.20
2023-06-30T13:24:53.926Z,85.00
2023-06-30T13:27:23.646Z,85.50
2023-06-30T13:29:53.500Z,84.80
2023-06-30T13:32:21.627Z,86.50
2023-06-30T13:34:50.474Z,85.10
2023-06-30T13:37:18.645Z,85.00
2023-06-30T13:39:46.728Z,85.50
2023-06-30T13:42:14.815Z,86.20
2023-06-30T13:44:44.693Z,86.40
2023-06-30T13:59:30.761Z,87.90
2023-06-30T14:02:00.258Z,87.60
2023-06-30T14:04:28.672Z,86.80
2023-06-30T14:06:56.929Z,87.90
2023-06-30T14:09:28.522Z,88.50
2023-06-30T14:23:20.368Z,88.00
2023-06-30T14:25:48.721Z,87.20
2023-06-30T14:28:17.064Z,88.70
2023-06-30T14:30:45.281Z,88.20
2023-06-30T14:33:16.564Z,89.90
2023-06-30T14:35:45.007Z,90.00
2023-06-30T14:38:13.397Z,89.70
2023-06-30T14:40:42.974Z,90.40
2023-06-30T14:43:11.051Z,90.10
2023-06-30T14:45:39.193Z,90.40
2023-06-30T14:48:07.772Z,90.70
2023-06-30T14:50:37.528Z,90.40
2023-06-30T14:53:05.713Z,90.70
2023-06-30T14:55:33.870Z,91.00
2023-06-30T14:58:03.392Z,91.20
2023-06-30T15:00:31.538Z,91.40
2023-06-30T15:03:00.319Z,90.70
2023-06-30T15:05:30.146Z,90.10
2023-06-30T15:07:58.297Z,90.30
2023-06-30T15:10:26.538Z,89.90
2023-06-30T15:12:54.739Z,90.20
2023-06-30T15:15:24.378Z,90.20
2023-06-30T15:17:52.587Z,89.50
2023-06-30T15:20:20.783Z,90.40
2023-06-30T15:22:50.786Z,90.30
2023-06-30T15:25:26.030Z,90.50
2023-06-30T15:27:55.146Z,91.30
2023-06-30T15:30:25.109Z,90.60
2023-06-30T15:32:54.512Z,90.50
2023-06-30T15:35:23.191Z,90.40
2023-06-30T15:37:51.303Z,90.60
2023-06-30T15:40:19.697Z,90.30
2023-06-30T15:42:47.843Z,90.40
2023-06-30T15:45:15.953Z,89.30
2023-06-30T15:47:45.468Z,90.00
2023-06-30T15:50:13.639Z,90.60
2023-06-30T15:52:41.798Z,90.50
2023-06-30T15:55:12.057Z,90.70
2023-06-30T15:57:40.530Z,90.50
2023-06-30T16:00:10.466Z,90.60
2023-06-30T16:02:39.110Z,90.90
2023-06-30T16:05:12.609Z,91.50
2023-06-30T16:07:40.850Z,91.40
2023-06-30T16:10:09.232Z,91.50
2023-06-30T16:12:37.394Z,91.60
2023-06-30T16:27:01.002Z,91.50
2023-06-30T16:29:53.887Z,91.80
2023-06-30T16:32:22.083Z,91.30
2023-06-30T16:42:24.577Z,91.00
2023-06-30T16:44:52.680Z,90.80
2023-06-30T16:47:22.403Z,90.80
2023-06-30T16:49:50.568Z,90.90
2023-06-30T16:52:18.657Z,91.10
2023-06-30T16:54:46.778Z,91.50
2023-06-30T16:57:14.956Z,91.80
2023-06-30T16:59:44.473Z,91.70
2023-06-30T17:02:37.198Z,91.90
2023-06-30T17:05:06.448Z,92.10
2023-06-30T17:07:35.596Z,92.30
2023-06-30T17:10:05.759Z,92.30
2023-06-30T17:12:34.067Z,92.40
2023-06-30T17:15:03.561Z,92.40
2023-06-30T17:17:31.716Z,92.70
2023-06-30T17:19:59.837Z,93.20
2023-06-30T17:22:27.922Z,93.00
2023-06-30T17:25:01.009Z,93.60
2023-06-30T17:27:32.734Z,94.00
2023-06-30T17:30:00.896Z,93.90
2023-06-30T17:32:30.444Z,93.70
2023-06-30T17:34:58.614Z,94.00
2023-06-30T17:37:26.750Z,94.60
2023-06-30T17:39:54.906Z,94.60
2023-06-30T17:42:23.064Z,94.60
2023-06-30T17:44:51.202Z,94.70
2023-06-30T17:47:19.534Z,94.80
2023-06-30T17:49:49.073Z,94.90
2023-06-30T17:52:17.252Z,94.70
2023-06-30T17:54:45.394Z,94.60
2023-06-30T17:57:14.459Z,94.50
2023-06-30T17:59:42.583Z,94.80
2023-06-30T18:02:10.775Z,95.20
2023-06-30T18:04:39.257Z,95.60
2023-06-30T18:07:11.784Z,95.90
2023-06-30T18:09:41.598Z,96.30
2023-06-30T18:12:11.317Z,96.50
2023-06-30T18:14:40.443Z,96.30
2023-06-30T18:17:08.652Z,96.30
2023-06-30T18:19:36.943Z,97.00
2023-06-30T18:22:05.449Z,97.70
2023-06-30T18:24:34.916Z,97.60
2023-06-30T18:27:03.046Z,98.00
2023-06-30T18:29:31.421Z,98.50
2023-06-30T18:32:00.980Z,98.60
2023-06-30T18:34:29.410Z,98.90
2023-06-30T18:36:57.632Z,99.40
2023-06-30T18:39:25.746Z,99.40
2023-06-30T18:41:55.900Z,99.70
2023-06-30T18:44:26.006Z,99.70
2023-06-30T18:46:54.214Z,99.90
2023-06-30T18:49:24.762Z,99.90
2023-06-30T18:51:55.255Z,99.90
2023-06-30T18:54:23.728Z,99.90
2023-06-30T18:56:52.133Z,99.90
2023-06-30T18:59:21.717Z,99.90
2023-06-30T19:01:50.181Z,99.90
2023-06-30T19:04:18.760Z,99.90
2023-06-30T19:06:48.572Z,99.90
2023-06-30T19:09:17.621Z,99.90
2023-06-30T19:11:45.706Z,99.90
2023-06-30T19:14:13.937Z,99.90
2023-06-30T19:16:43.366Z,99.90
2023-06-30T19:19:11.464Z,99.90
2023-06-30T19:21:39.571Z,99.90
2023-06-30T19:24:08.409Z,99.90
2023-06-30T19:26:36.502Z,99.90
2023-06-30T19:29:04.606Z,99.90
2023-06-30T19:31:32.768Z,99.90
2023-06-30T19:34:02.254Z,99.90
2023-06-30T19:36:32.853Z,99.90
2023-06-30T19:39:01.046Z,99.90
2023-06-30T19:41:29.133Z,99.90
2023-06-30T19:43:57.275Z,99.90
2023-06-30T19:46:25.376Z,99.90
2023-06-30T19:48:53.501Z,99.90
2023-06-30T19:51:22.973Z,99.90
2023-06-30T19:53:51.087Z,99.90
2023-06-30T19:56:19.278Z,99.90
2023-06-30T19:58:47.399Z,99.90
2023-06-30T20:01:17.922Z,99.90
2023-06-30T20:03:46.226Z,99.90
2023-06-30T20:06:14.430Z,99.90
2023-06-30T20:08:43.990Z,99.90
2023-06-30T20:11:13.219Z,99.90
2023-06-30T20:13:41.750Z,99.90
2023-06-30T20:16:10.647Z,99.90
2023-06-30T20:18:38.827Z,99.90
2023-06-30T20:21:07.340Z,99.90
2023-06-30T20:23:35.502Z,99.90
2023-06-30T20:26:05.005Z,99.90
2023-06-30T20:28:33.141Z,99.90
2023-06-30T20:31:01.238Z,99.90
2023-06-30T20:33:29.724Z,99.90
2023-06-30T20:36:00.690Z,99.90
2023-06-30T20:38:28.768Z,99.90
2023-06-30T20:40:57.004Z,99.90
2023-06-30T20:43:26.637Z,99.90
2023-06-30T20:45:54.729Z,99.90
2023-06-30T20:48:22.816Z,99.90
2023-06-30T20:50:51.000Z,99.90
2023-06-30T20:53:19.149Z,99.90
2023-06-30T20:55:47.287Z,99.90
2023-06-30T20:58:15.522Z,99.90
2023-06-30T21:00:45.254Z,99.90
2023-06-30T21:03:13.741Z,99.90
2023-06-30T21:05:42.065Z,99.90
2023-06-30T21:08:10.610Z,99.90
2023-06-30T21:10:38.889Z,99.90
2023-06-30T21:13:07.118Z,99.90
2023-06-30T21:15:35.207Z,99.90
2023-06-30T21:18:05.451Z,99.90
2023-06-30T21:20:34.057Z,99.90
2023-06-30T21:23:02.212Z,99.90
2023-06-30T21:25:31.979Z,99.90
2023-06-30T21:28:00.105Z,99.90
2023-06-30T21:30:28.205Z,99.90
2023-06-30T21:32:56.465Z,99.90
2023-06-30T21:35:26.042Z,99.90
2023-06-30T21:37:54.150Z,99.90
2023-06-30T21:40:22.331Z,99.90
2023-06-30T21:42:50.420Z,99.90
2023-06-30T21:45:18.684Z,99.90
2023-06-30T21:47:46.943Z,99.90
2023-06-30T21:50:15.121Z,99.90
2023-06-30T21:52:44.676Z,99.90
2023-06-30T21:55:12.844Z,99.90
2023-06-30T21:57:40.927Z,99.90
2023-06-30T22:00:10.798Z,99.90
2023-06-30T22:02:39.099Z,99.90
2023-06-30T22:05:07.455Z,99.90
2023-06-30T22:07:35.614Z,99.90
2023-06-30T22:10:07.075Z,99.90
2023-06-30T22:12:35.215Z,99.90
2023-06-30T22:15:03.867Z,99.90
2023-06-30T22:17:32.064Z,99.90
2023-06-30T22:20:02.260Z,99.90
2023-06-30T22:22:30.404Z,99.90
2023-06-30T22:24:58.560Z,99.90
2023-06-30T22:27:28.069Z,99.90
2023-06-30T22:29:56.345Z,99.90
2023-06-30T22:32:25.640Z,99.90
2023-06-30T22:34:53.781Z,99.90
2023-06-30T22:37:22.379Z,99.90
2023-06-30T22:39:50.470Z,99.90
2023-06-30T22:42:22.687Z,99.90
2023-06-30T22:44:52.320Z,99.90
2023-06-30T22:47:20.574Z,99.90
2023-06-30T22:49:48.838Z,99.90
2023-06-30T22:52:16.952Z,99.90
2023-06-30T22:54:45.066Z,99.90
2023-06-30T22:57:13.154Z,99.90
2023-06-30T22:59:41.271Z,99.90
2023-06-30T23:02:10.736Z,99.90
2023-06-30T23:04:39.391Z,99.90
2023-06-30T23:07:08.252Z,99.90
2023-06-30T23:09:36.369Z,99.90
2023-06-30T23:12:04.684Z,99.90
2023-06-30T23:14:32.790Z,99.90
2023-06-30T23:17:00.916Z,99.90
2023-06-30T23:19:30.516Z,99.90
2023-06-30T23:22:06.754Z,99.90
2023-06-30T23:24:35.469Z,99.90
2023-06-30T23:27:04.493Z,99.90
2023-06-30T23:29:34.898Z,99.90
2023-06-30T23:32:07.267Z,99.90
2023-06-30T23:34:37.993Z,99.90
2023-06-30T23:37:06.875Z,99.90
2023-06-30T23:39:36.824Z,99.90
2023-06-30T23:42:05.659Z,99.90
2023-06-30T23:44:33.805Z,99.90
2023-06-30T23:47:03.524Z,99.90
2023-06-30T23:49:32.409Z,99.90
2023-06-30T23:52:02.200Z,99.90
2023-06-30T23:54:30.275Z,99.90
2023-06-30T23:56:58.378Z,99.90
2023-06-30T23:59:26.526Z,99.90
